sensor_id;sensor_type;location;lat;lon;timestamp;P1;durP1;ratioP1;P2;durP2;ratioP2
7817;SDS011;3954;52.624;9.212;2023-02-18T00:01:58;8.88;;;2.72;;
7817;SDS011;3954;52.624;9.212;2023-02-18T00:04:24;8.93;;;2.75;;
7817;SDS011;3954;52.624;9.212;2023-02-18T00:06:50;8.88;;;2.97;;
7817;SDS011;3954;52.624;9.212;2023-02-18T00:09:16;7.90;;;2.88;;
7817;SDS011;3954;52.624;9.212;2023-02-18T00:11:42;7.50;;;2.83;;
7817;SDS011;3954;52.624;9.212;2023-02-18T00:14:11;9.50;;;2.67;;
7817;SDS011;3954;52.624;9.212;2023-02-18T00:16:37;11.48;;;2.92;;
7817;SDS011;3954;52.624;9.212;2023-02-18T00:19:04;9.10;;;2.67;;
7817;SDS011;3954;52.624;9.212;2023-02-18T00:21:31;8.20;;;2.35;;
7817;SDS011;3954;52.624;9.212;2023-02-18T00:23:57;8.88;;;2.85;;
7817;SDS011;3954;52.624;9.212;2023-02-18T00:26:23;7.30;;;2.57;;
7817;SDS011;3954;52.624;9.212;2023-02-18T00:28:49;12.00;;;3.08;;
7817;SDS011;3954;52.624;9.212;2023-02-18T00:31:18;8.07;;;2.70;;
7817;SDS011;3954;52.624;9.212;2023-02-18T00:33:45;6.25;;;2.05;;
7817;SDS011;3954;52.624;9.212;2023-02-18T00:36:11;7.07;;;2.50;;
7817;SDS011;3954;52.624;9.212;2023-02-18T00:38:38;10.27;;;2.67;;
7817;SDS011;3954;52.624;9.212;2023-02-18T00:41:04;6.25;;;2.50;;
7817;SDS011;3954;52.624;9.212;2023-02-18T00:43:30;7.93;;;2.75;;
7817;SDS011;3954;52.624;9.212;2023-02-18T00:45:56;8.48;;;2.50;;
7817;SDS011;3954;52.624;9.212;2023-02-18T00:48:24;7.23;;;2.27;;
7817;SDS011;3954;52.624;9.212;2023-02-18T00:50:50;8.90;;;2.53;;
7817;SDS011;3954;52.624;9.212;2023-02-18T00:53:16;7.15;;;2.30;;
7817;SDS011;3954;52.624;9.212;2023-02-18T00:55:42;7.15;;;2.40;;
7817;SDS011;3954;52.624;9.212;2023-02-18T00:58:09;8.73;;;2.50;;
7817;SDS011;3954;52.624;9.212;2023-02-18T01:00:35;6.70;;;2.50;;
7817;SDS011;3954;52.624;9.212;2023-02-18T01:03:01;7.15;;;2.70;;
7817;SDS011;3954;52.624;9.212;2023-02-18T01:05:29;6.63;;;2.40;;
7817;SDS011;3954;52.624;9.212;2023-02-18T01:07:55;8.30;;;2.30;;
7817;SDS011;3954;52.624;9.212;2023-02-18T01:10:21;9.00;;;2.20;;
7817;SDS011;3954;52.624;9.212;2023-02-18T01:12:47;8.18;;;2.63;;
7817;SDS011;3954;52.624;9.212;2023-02-18T01:15:13;5.93;;;2.30;;
7817;SDS011;3954;52.624;9.212;2023-02-18T01:17:39;6.25;;;2.45;;
7817;SDS011;3954;52.624;9.212;2023-02-18T01:20:06;7.80;;;2.50;;
7817;SDS011;3954;52.624;9.212;2023-02-18T01:22:33;7.20;;;2.40;;
7817;SDS011;3954;52.624;9.212;2023-02-18T01:25:00;7.68;;;2.70;;
7817;SDS011;3954;52.624;9.212;2023-02-18T01:27:26;9.65;;;2.75;;
7817;SDS011;3954;52.624;9.212;2023-02-18T01:29:52;8.87;;;2.80;;
7817;SDS011;3954;52.624;9.212;2023-02-18T01:32:18;7.30;;;2.58;;
7817;SDS011;3954;52.624;9.212;2023-02-18T01:34:44;8.23;;;2.60;;
7817;SDS011;3954;52.624;9.212;2023-02-18T01:37:11;8.00;;;2.53;;
7817;SDS011;3954;52.624;9.212;2023-02-18T01:39:38;8.52;;;2.65;;
7817;SDS011;3954;52.624;9.212;2023-02-18T01:42:04;7.47;;;2.50;;
7817;SDS011;3954;52.624;9.212;2023-02-18T01:44:32;8.82;;;2.22;;
7817;SDS011;3954;52.624;9.212;2023-02-18T01:46:58;6.25;;;2.33;;
7817;SDS011;3954;52.624;9.212;2023-02-18T01:49:26;9.20;;;2.47;;
7817;SDS011;3954;52.624;9.212;2023-02-18T01:51:53;7.60;;;2.55;;
7817;SDS011;3954;52.624;9.212;2023-02-18T01:54:21;7.25;;;2.30;;
7817;SDS011;3954;52.624;9.212;2023-02-18T01:56:52;6.05;;;2.58;;
7817;SDS011;3954;52.624;9.212;2023-02-18T01:59:20;6.73;;;2.50;;
7817;SDS011;3954;52.624;9.212;2023-02-18T02:01:48;7.45;;;2.50;;
7817;SDS011;3954;52.624;9.212;2023-02-18T02:04:14;8.32;;;2.55;;
7817;SDS011;3954;52.624;9.212;2023-02-18T02:06:41;6.70;;;2.45;;
7817;SDS011;3954;52.624;9.212;2023-02-18T02:09:08;6.67;;;2.20;;
7817;SDS011;3954;52.624;9.212;2023-02-18T02:11:47;5.72;;;2.28;;
7817;SDS011;3954;52.624;9.212;2023-02-18T02:14:19;6.10;;;2.30;;
7817;SDS011;3954;52.624;9.212;2023-02-18T02:16:49;6.05;;;2.45;;
7817;SDS011;3954;52.624;9.212;2023-02-18T02:19:28;6.05;;;2.42;;
7817;SDS011;3954;52.624;9.212;2023-02-18T02:22:09;9.52;;;3.00;;
7817;SDS011;3954;52.624;9.212;2023-02-18T02:24:49;7.05;;;2.40;;
7817;SDS011;3954;52.624;9.212;2023-02-18T02:27:19;6.53;;;2.53;;
7817;SDS011;3954;52.624;9.212;2023-02-18T02:32:48;6.50;;;2.30;;
7817;SDS011;3954;52.624;9.212;2023-02-18T02:35:20;6.55;;;2.25;;
7817;SDS011;3954;52.624;9.212;2023-02-18T02:37:48;8.13;;;2.60;;
7817;SDS011;3954;52.624;9.212;2023-02-18T02:40:19;7.55;;;2.75;;
7817;SDS011;3954;52.624;9.212;2023-02-18T02:42:49;7.68;;;2.60;;
7817;SDS011;3954;52.624;9.212;2023-02-18T02:45:21;6.53;;;2.53;;
7817;SDS011;3954;52.624;9.212;2023-02-18T02:47:50;7.22;;;2.40;;
7817;SDS011;3954;52.624;9.212;2023-02-18T02:50:19;9.98;;;2.80;;
7817;SDS011;3954;52.624;9.212;2023-02-18T02:52:50;6.88;;;2.75;;
7817;SDS011;3954;52.624;9.212;2023-02-18T02:55:17;9.80;;;2.80;;
7817;SDS011;3954;52.624;9.212;2023-02-18T02:57:45;10.03;;;2.63;;
7817;SDS011;3954;52.624;9.212;2023-02-18T03:00:12;6.53;;;2.60;;
7817;SDS011;3954;52.624;9.212;2023-02-18T03:02:41;9.77;;;2.70;;
7817;SDS011;3954;52.624;9.212;2023-02-18T03:05:13;9.18;;;2.65;;
7817;SDS011;3954;52.624;9.212;2023-02-18T03:07:47;9.10;;;3.03;;
7817;SDS011;3954;52.624;9.212;2023-02-18T03:10:31;6.80;;;2.70;;
7817;SDS011;3954;52.624;9.212;2023-02-18T03:13:00;8.70;;;2.67;;
7817;SDS011;3954;52.624;9.212;2023-02-18T03:18:33;7.00;;;2.70;;
7817;SDS011;3954;52.624;9.212;2023-02-18T03:21:03;8.70;;;2.72;;
7817;SDS011;3954;52.624;9.212;2023-02-18T03:23:31;7.43;;;2.47;;
7817;SDS011;3954;52.624;9.212;2023-02-18T03:26:01;9.45;;;2.72;;
7817;SDS011;3954;52.624;9.212;2023-02-18T03:28:29;11.25;;;3.00;;
7817;SDS011;3954;52.624;9.212;2023-02-18T03:30:57;7.90;;;2.78;;
7817;SDS011;3954;52.624;9.212;2023-02-18T03:33:25;8.38;;;2.45;;
7817;SDS011;3954;52.624;9.212;2023-02-18T03:35:52;9.57;;;3.00;;
7817;SDS011;3954;52.624;9.212;2023-02-18T03:38:19;8.18;;;3.13;;
7817;SDS011;3954;52.624;9.212;2023-02-18T03:40:46;8.47;;;3.00;;
7817;SDS011;3954;52.624;9.212;2023-02-18T03:43:14;9.82;;;3.10;;
7817;SDS011;3954;52.624;9.212;2023-02-18T03:45:40;8.88;;;3.08;;
7817;SDS011;3954;52.624;9.212;2023-02-18T03:48:06;9.10;;;3.70;;
7817;SDS011;3954;52.624;9.212;2023-02-18T03:50:32;9.13;;;3.90;;
7817;SDS011;3954;52.624;9.212;2023-02-18T03:52:58;13.90;;;5.10;;
7817;SDS011;3954;52.624;9.212;2023-02-18T03:55:24;11.77;;;5.35;;
7817;SDS011;3954;52.624;9.212;2023-02-18T03:57:50;12.32;;;6.07;;
7817;SDS011;3954;52.624;9.212;2023-02-18T04:00:18;12.40;;;5.55;;
7817;SDS011;3954;52.624;9.212;2023-02-18T04:02:44;9.73;;;4.70;;
7817;SDS011;3954;52.624;9.212;2023-02-18T04:05:10;7.32;;;4.20;;
7817;SDS011;3954;52.624;9.212;2023-02-18T04:07:36;8.50;;;3.72;;
7817;SDS011;3954;52.624;9.212;2023-02-18T04:10:02;7.75;;;3.35;;
7817;SDS011;3954;52.624;9.212;2023-02-18T04:12:28;7.85;;;3.80;;
7817;SDS011;3954;52.624;9.212;2023-02-18T04:14:54;9.35;;;3.80;;
7817;SDS011;3954;52.624;9.212;2023-02-18T04:17:22;10.07;;;4.03;;
7817;SDS011;3954;52.624;9.212;2023-02-18T04:19:48;8.73;;;3.78;;
7817;SDS011;3954;52.624;9.212;2023-02-18T04:22:14;10.75;;;4.05;;
7817;SDS011;3954;52.624;9.212;2023-02-18T04:24:40;8.07;;;3.72;;
7817;SDS011;3954;52.624;9.212;2023-02-18T04:27:06;12.30;;;4.40;;
7817;SDS011;3954;52.624;9.212;2023-02-18T04:29:32;9.05;;;4.35;;
7817;SDS011;3954;52.624;9.212;2023-02-18T04:31:58;9.13;;;4.28;;
7817;SDS011;3954;52.624;9.212;2023-02-18T04:34:25;9.00;;;4.30;;
7817;SDS011;3954;52.624;9.212;2023-02-18T04:36:51;8.37;;;4.10;;
7817;SDS011;3954;52.624;9.212;2023-02-18T04:39:17;8.07;;;4.32;;
7817;SDS011;3954;52.624;9.212;2023-02-18T04:41:43;13.63;;;5.03;;
7817;SDS011;3954;52.624;9.212;2023-02-18T04:44:09;10.43;;;4.35;;
7817;SDS011;3954;52.624;9.212;2023-02-18T04:46:35;10.13;;;4.70;;
7817;SDS011;3954;52.624;9.212;2023-02-18T04:49:01;9.37;;;4.80;;
7817;SDS011;3954;52.624;9.212;2023-02-18T04:51:28;8.40;;;5.25;;
7817;SDS011;3954;52.624;9.212;2023-02-18T04:53:54;11.63;;;5.75;;
7817;SDS011;3954;52.624;9.212;2023-02-18T04:56:20;8.90;;;4.50;;
7817;SDS011;3954;52.624;9.212;2023-02-18T04:58:46;10.27;;;4.93;;
7817;SDS011;3954;52.624;9.212;2023-02-18T05:01:12;12.63;;;5.53;;
7817;SDS011;3954;52.624;9.212;2023-02-18T05:03:38;9.32;;;4.93;;
7817;SDS011;3954;52.624;9.212;2023-02-18T05:06:05;9.45;;;5.22;;
7817;SDS011;3954;52.624;9.212;2023-02-18T05:08:32;9.13;;;5.13;;
7817;SDS011;3954;52.624;9.212;2023-02-18T05:10:58;12.48;;;5.50;;
7817;SDS011;3954;52.624;9.212;2023-02-18T05:13:24;9.40;;;5.40;;
7817;SDS011;3954;52.624;9.212;2023-02-18T05:15:50;14.85;;;6.80;;
7817;SDS011;3954;52.624;9.212;2023-02-18T05:18:16;9.60;;;5.85;;
7817;SDS011;3954;52.624;9.212;2023-02-18T05:20:42;9.32;;;5.78;;
7817;SDS011;3954;52.624;9.212;2023-02-18T05:23:08;12.55;;;6.43;;
7817;SDS011;3954;52.624;9.212;2023-02-18T05:25:36;11.55;;;6.15;;
7817;SDS011;3954;52.624;9.212;2023-02-18T05:28:02;11.45;;;6.68;;
7817;SDS011;3954;52.624;9.212;2023-02-18T05:30:28;9.83;;;6.17;;
7817;SDS011;3954;52.624;9.212;2023-02-18T05:32:54;9.50;;;5.70;;
7817;SDS011;3954;52.624;9.212;2023-02-18T05:35:20;11.38;;;6.95;;
7817;SDS011;3954;52.624;9.212;2023-02-18T05:37:46;9.55;;;6.45;;
7817;SDS011;3954;52.624;9.212;2023-02-18T05:40:11;12.82;;;7.15;;
7817;SDS011;3954;52.624;9.212;2023-02-18T05:42:39;8.77;;;6.47;;
7817;SDS011;3954;52.624;9.212;2023-02-18T05:45:05;10.23;;;6.57;;
7817;SDS011;3954;52.624;9.212;2023-02-18T05:47:31;9.80;;;6.97;;
7817;SDS011;3954;52.624;9.212;2023-02-18T05:49:57;9.77;;;7.30;;
7817;SDS011;3954;52.624;9.212;2023-02-18T05:52:23;11.75;;;7.97;;
7817;SDS011;3954;52.624;9.212;2023-02-18T05:54:49;10.30;;;7.20;;
7817;SDS011;3954;52.624;9.212;2023-02-18T05:57:15;12.15;;;8.18;;
7817;SDS011;3954;52.624;9.212;2023-02-18T05:59:43;14.27;;;9.10;;
7817;SDS011;3954;52.624;9.212;2023-02-18T06:02:09;16.35;;;10.75;;
7817;SDS011;3954;52.624;9.212;2023-02-18T06:04:35;15.05;;;9.90;;
7817;SDS011;3954;52.624;9.212;2023-02-18T06:07:01;15.18;;;9.80;;
7817;SDS011;3954;52.624;9.212;2023-02-18T06:09:27;11.57;;;8.80;;
7817;SDS011;3954;52.624;9.212;2023-02-18T06:11:53;11.38;;;9.20;;
7817;SDS011;3954;52.624;9.212;2023-02-18T06:14:19;10.85;;;8.60;;
7817;SDS011;3954;52.624;9.212;2023-02-18T06:16:46;12.20;;;8.80;;
7817;SDS011;3954;52.624;9.212;2023-02-18T06:19:12;10.57;;;8.93;;
7817;SDS011;3954;52.624;9.212;2023-02-18T06:21:38;10.50;;;8.77;;
7817;SDS011;3954;52.624;9.212;2023-02-18T06:24:04;11.97;;;9.53;;
7817;SDS011;3954;52.624;9.212;2023-02-18T06:26:30;16.63;;;11.95;;
7817;SDS011;3954;52.624;9.212;2023-02-18T06:28:57;14.20;;;11.77;;
7817;SDS011;3954;52.624;9.212;2023-02-18T06:31:23;14.82;;;11.90;;
7817;SDS011;3954;52.624;9.212;2023-02-18T06:33:50;15.60;;;12.55;;
7817;SDS011;3954;52.624;9.212;2023-02-18T06:36:16;16.50;;;13.18;;
7817;SDS011;3954;52.624;9.212;2023-02-18T06:38:42;16.48;;;13.95;;
7817;SDS011;3954;52.624;9.212;2023-02-18T06:41:09;16.05;;;12.93;;
7817;SDS011;3954;52.624;9.212;2023-02-18T06:43:35;18.30;;;14.80;;
7817;SDS011;3954;52.624;9.212;2023-02-18T06:46:02;17.77;;;14.40;;
7817;SDS011;3954;52.624;9.212;2023-02-18T06:48:28;18.42;;;15.82;;
7817;SDS011;3954;52.624;9.212;2023-02-18T06:50:55;22.60;;;17.20;;
7817;SDS011;3954;52.624;9.212;2023-02-18T06:53:21;25.08;;;17.55;;
7817;SDS011;3954;52.624;9.212;2023-02-18T06:55:47;22.63;;;17.42;;
7817;SDS011;3954;52.624;9.212;2023-02-18T06:58:14;27.70;;;20.15;;
7817;SDS011;3954;52.624;9.212;2023-02-18T07:00:40;30.85;;;21.40;;
7817;SDS011;3954;52.624;9.212;2023-02-18T07:03:06;37.40;;;24.40;;
7817;SDS011;3954;52.624;9.212;2023-02-18T07:05:32;43.75;;;26.67;;
7817;SDS011;3954;52.624;9.212;2023-02-18T07:08:00;53.40;;;30.10;;
7817;SDS011;3954;52.624;9.212;2023-02-18T07:10:26;62.30;;;33.95;;
7817;SDS011;3954;52.624;9.212;2023-02-18T07:12:52;61.38;;;33.63;;
7817;SDS011;3954;52.624;9.212;2023-02-18T07:15:18;63.17;;;32.83;;
7817;SDS011;3954;52.624;9.212;2023-02-18T07:17:48;54.00;;;31.58;;
7817;SDS011;3954;52.624;9.212;2023-02-18T07:20:14;51.08;;;31.35;;
7817;SDS011;3954;52.624;9.212;2023-02-18T07:22:40;56.58;;;31.90;;
7817;SDS011;3954;52.624;9.212;2023-02-18T07:25:07;53.35;;;32.47;;
7817;SDS011;3954;52.624;9.212;2023-02-18T07:27:33;64.03;;;35.28;;
7817;SDS011;3954;52.624;9.212;2023-02-18T07:29:59;50.73;;;31.73;;
7817;SDS011;3954;52.624;9.212;2023-02-18T07:32:25;59.20;;;34.17;;
7817;SDS011;3954;52.624;9.212;2023-02-18T07:34:51;70.95;;;35.78;;
7817;SDS011;3954;52.624;9.212;2023-02-18T07:37:17;68.60;;;35.03;;
7817;SDS011;3954;52.624;9.212;2023-02-18T07:39:43;73.50;;;35.50;;
7817;SDS011;3954;52.624;9.212;2023-02-18T07:42:11;58.95;;;32.60;;
7817;SDS011;3954;52.624;9.212;2023-02-18T07:44:38;54.83;;;29.65;;
7817;SDS011;3954;52.624;9.212;2023-02-18T07:47:05;42.50;;;26.50;;
7817;SDS011;3954;52.624;9.212;2023-02-18T07:49:31;38.78;;;25.00;;
7817;SDS011;3954;52.624;9.212;2023-02-18T07:51:57;44.37;;;25.67;;
7817;SDS011;3954;52.624;9.212;2023-02-18T07:54:24;38.65;;;23.92;;
7817;SDS011;3954;52.624;9.212;2023-02-18T07:56:50;32.58;;;21.73;;
7817;SDS011;3954;52.624;9.212;2023-02-18T07:59:17;34.35;;;20.88;;
7817;SDS011;3954;52.624;9.212;2023-02-18T08:01:43;27.38;;;19.45;;
7817;SDS011;3954;52.624;9.212;2023-02-18T08:04:09;27.15;;;18.75;;
7817;SDS011;3954;52.624;9.212;2023-02-18T08:06:36;23.13;;;16.98;;
7817;SDS011;3954;52.624;9.212;2023-02-18T08:09:02;23.38;;;16.23;;
7817;SDS011;3954;52.624;9.212;2023-02-18T08:11:28;21.85;;;15.85;;
7817;SDS011;3954;52.624;9.212;2023-02-18T08:13:54;21.92;;;14.75;;
7817;SDS011;3954;52.624;9.212;2023-02-18T08:16:22;17.58;;;13.15;;
7817;SDS011;3954;52.624;9.212;2023-02-18T08:18:48;15.43;;;12.10;;
7817;SDS011;3954;52.624;9.212;2023-02-18T08:21:14;11.98;;;9.50;;
7817;SDS011;3954;52.624;9.212;2023-02-18T08:23:40;9.77;;;8.50;;
7817;SDS011;3954;52.624;9.212;2023-02-18T08:26:07;8.70;;;7.33;;
7817;SDS011;3954;52.624;9.212;2023-02-18T08:28:33;7.30;;;6.30;;
7817;SDS011;3954;52.624;9.212;2023-02-18T08:30:59;7.47;;;6.32;;
7817;SDS011;3954;52.624;9.212;2023-02-18T08:33:26;6.63;;;5.93;;
7817;SDS011;3954;52.624;9.212;2023-02-18T08:35:52;6.35;;;5.72;;
7817;SDS011;3954;52.624;9.212;2023-02-18T08:38:19;6.32;;;5.72;;
7817;SDS011;3954;52.624;9.212;2023-02-18T08:40:45;5.93;;;5.43;;
7817;SDS011;3954;52.624;9.212;2023-02-18T08:43:11;5.70;;;5.10;;
7817;SDS011;3954;52.624;9.212;2023-02-18T08:45:37;5.45;;;4.95;;
7817;SDS011;3954;52.624;9.212;2023-02-18T08:48:03;5.60;;;4.20;;
7817;SDS011;3954;52.624;9.212;2023-02-18T08:50:31;4.50;;;4.10;;
7817;SDS011;3954;52.624;9.212;2023-02-18T08:52:57;4.50;;;4.10;;
7817;SDS011;3954;52.624;9.212;2023-02-18T08:55:27;4.47;;;4.07;;
7817;SDS011;3954;52.624;9.212;2023-02-18T08:57:53;4.30;;;3.90;;
7817;SDS011;3954;52.624;9.212;2023-02-18T09:00:19;4.05;;;3.65;;
7817;SDS011;3954;52.624;9.212;2023-02-18T09:02:45;3.88;;;3.38;;
7817;SDS011;3954;52.624;9.212;2023-02-18T09:05:12;3.50;;;3.20;;
7817;SDS011;3954;52.624;9.212;2023-02-18T09:07:39;3.42;;;3.10;;
7817;SDS011;3954;52.624;9.212;2023-02-18T09:10:06;3.30;;;3.00;;
7817;SDS011;3954;52.624;9.212;2023-02-18T09:12:32;3.03;;;2.80;;
7817;SDS011;3954;52.624;9.212;2023-02-18T09:14:58;3.05;;;2.83;;
7817;SDS011;3954;52.624;9.212;2023-02-18T09:17:24;2.72;;;2.40;;
7817;SDS011;3954;52.624;9.212;2023-02-18T09:19:50;2.80;;;2.50;;
7817;SDS011;3954;52.624;9.212;2023-02-18T09:22:17;2.58;;;2.38;;
7817;SDS011;3954;52.624;9.212;2023-02-18T09:24:44;2.50;;;2.30;;
7817;SDS011;3954;52.624;9.212;2023-02-18T09:27:10;2.40;;;2.20;;
7817;SDS011;3954;52.624;9.212;2023-02-18T09:29:37;2.78;;;2.40;;
7817;SDS011;3954;52.624;9.212;2023-02-18T09:32:04;2.92;;;2.25;;
7817;SDS011;3954;52.624;9.212;2023-02-18T09:34:30;2.53;;;2.00;;
7817;SDS011;3954;52.624;9.212;2023-02-18T09:36:56;2.25;;;2.05;;
7817;SDS011;3954;52.624;9.212;2023-02-18T09:39:22;2.20;;;2.00;;
7817;SDS011;3954;52.624;9.212;2023-02-18T09:41:49;2.17;;;1.98;;
7817;SDS011;3954;52.624;9.212;2023-02-18T09:44:17;2.03;;;1.83;;
7817;SDS011;3954;52.624;9.212;2023-02-18T09:46:46;2.00;;;1.90;;
7817;SDS011;3954;52.624;9.212;2023-02-18T09:49:13;1.90;;;1.80;;
7817;SDS011;3954;52.624;9.212;2023-02-18T09:51:40;2.28;;;2.08;;
7817;SDS011;3954;52.624;9.212;2023-02-18T09:54:07;1.80;;;1.70;;
7817;SDS011;3954;52.624;9.212;2023-02-18T09:56:33;1.90;;;1.80;;
7817;SDS011;3954;52.624;9.212;2023-02-18T09:59:04;2.03;;;1.92;;
7817;SDS011;3954;52.624;9.212;2023-02-18T10:01:32;2.20;;;2.00;;
7817;SDS011;3954;52.624;9.212;2023-02-18T10:04:03;2.70;;;2.50;;
7817;SDS011;3954;52.624;9.212;2023-02-18T10:06:29;3.17;;;2.97;;
7817;SDS011;3954;52.624;9.212;2023-02-18T10:08:56;3.10;;;2.70;;
7817;SDS011;3954;52.624;9.212;2023-02-18T10:11:23;3.10;;;2.90;;
7817;SDS011;3954;52.624;9.212;2023-02-18T10:13:53;4.15;;;3.75;;
7817;SDS011;3954;52.624;9.212;2023-02-18T10:16:21;4.40;;;4.00;;
7817;SDS011;3954;52.624;9.212;2023-02-18T10:18:48;4.65;;;4.25;;
7817;SDS011;3954;52.624;9.212;2023-02-18T10:21:15;5.40;;;4.80;;
7817;SDS011;3954;52.624;9.212;2023-02-18T10:23:46;5.47;;;4.82;;
7817;SDS011;3954;52.624;9.212;2023-02-18T10:26:14;5.38;;;4.90;;
7817;SDS011;3954;52.624;9.212;2023-02-18T10:28:41;5.13;;;4.63;;
7817;SDS011;3954;52.624;9.212;2023-02-18T10:31:09;5.38;;;4.88;;
7817;SDS011;3954;52.624;9.212;2023-02-18T10:33:38;5.18;;;4.70;;
7817;SDS011;3954;52.624;9.212;2023-02-18T10:36:14;4.83;;;4.43;;
7817;SDS011;3954;52.624;9.212;2023-02-18T10:38:44;5.00;;;4.50;;
7817;SDS011;3954;52.624;9.212;2023-02-18T10:41:18;4.47;;;4.05;;
7817;SDS011;3954;52.624;9.212;2023-02-18T10:43:50;4.03;;;3.63;;
7817;SDS011;3954;52.624;9.212;2023-02-18T10:46:20;3.92;;;3.40;;
7817;SDS011;3954;52.624;9.212;2023-02-18T10:48:55;3.80;;;3.40;;
7817;SDS011;3954;52.624;9.212;2023-02-18T10:51:25;3.88;;;3.58;;
7817;SDS011;3954;52.624;9.212;2023-02-18T10:53:53;3.33;;;3.03;;
7817;SDS011;3954;52.624;9.212;2023-02-18T10:56:31;3.03;;;2.83;;
7817;SDS011;3954;52.624;9.212;2023-02-18T10:58:59;2.72;;;2.53;;
7817;SDS011;3954;52.624;9.212;2023-02-18T11:01:26;2.60;;;2.40;;
7817;SDS011;3954;52.624;9.212;2023-02-18T11:04:04;2.75;;;2.55;;
7817;SDS011;3954;52.624;9.212;2023-02-18T11:06:32;2.72;;;2.53;;
7817;SDS011;3954;52.624;9.212;2023-02-18T11:08:59;2.90;;;2.60;;
7817;SDS011;3954;52.624;9.212;2023-02-18T11:11:27;2.60;;;2.40;;
7817;SDS011;3954;52.624;9.212;2023-02-18T11:13:56;3.03;;;2.72;;
7817;SDS011;3954;52.624;9.212;2023-02-18T11:16:23;2.80;;;2.60;;
7817;SDS011;3954;52.624;9.212;2023-02-18T11:18:49;2.90;;;2.70;;
7817;SDS011;3954;52.624;9.212;2023-02-18T11:21:28;3.35;;;3.05;;
7817;SDS011;3954;52.624;9.212;2023-02-18T11:23:54;3.15;;;2.85;;
7817;SDS011;3954;52.624;9.212;2023-02-18T11:26:22;3.05;;;2.80;;
7817;SDS011;3954;52.624;9.212;2023-02-18T11:28:50;3.70;;;3.05;;
7817;SDS011;3954;52.624;9.212;2023-02-18T11:31:20;5.45;;;3.55;;
7817;SDS011;3954;52.624;9.212;2023-02-18T11:33:48;3.38;;;3.08;;
7817;SDS011;3954;52.624;9.212;2023-02-18T11:36:20;3.50;;;3.20;;
7817;SDS011;3954;52.624;9.212;2023-02-18T11:38:49;3.65;;;3.28;;
7817;SDS011;3954;52.624;9.212;2023-02-18T11:41:16;3.33;;;3.03;;
7817;SDS011;3954;52.624;9.212;2023-02-18T11:43:44;3.50;;;3.00;;
7817;SDS011;3954;52.624;9.212;2023-02-18T11:46:12;3.17;;;2.88;;
7817;SDS011;3954;52.624;9.212;2023-02-18T11:48:38;3.38;;;3.08;;
7817;SDS011;3954;52.624;9.212;2023-02-18T11:51:04;2.97;;;2.78;;
7817;SDS011;3954;52.624;9.212;2023-02-18T11:53:31;3.03;;;2.80;;
7817;SDS011;3954;52.624;9.212;2023-02-18T11:55:59;3.47;;;3.00;;
7817;SDS011;3954;52.624;9.212;2023-02-18T11:58:25;2.95;;;2.67;;
7817;SDS011;3954;52.624;9.212;2023-02-18T12:00:53;2.88;;;2.58;;
7817;SDS011;3954;52.624;9.212;2023-02-18T12:03:23;3.67;;;2.85;;
7817;SDS011;3954;52.624;9.212;2023-02-18T12:05:51;2.67;;;2.47;;
7817;SDS011;3954;52.624;9.212;2023-02-18T12:08:18;3.20;;;2.80;;
7817;SDS011;3954;52.624;9.212;2023-02-18T12:10:45;3.20;;;2.90;;
7817;SDS011;3954;52.624;9.212;2023-02-18T12:13:18;2.63;;;2.40;;
7817;SDS011;3954;52.624;9.212;2023-02-18T12:15:48;2.90;;;2.70;;
7817;SDS011;3954;52.624;9.212;2023-02-18T12:18:25;2.50;;;2.30;;
7817;SDS011;3954;52.624;9.212;2023-02-18T12:23:37;2.60;;;2.40;;
7817;SDS011;3954;52.624;9.212;2023-02-18T12:26:08;2.47;;;2.28;;
7817;SDS011;3954;52.624;9.212;2023-02-18T12:28:45;2.50;;;2.30;;
7817;SDS011;3954;52.624;9.212;2023-02-18T12:31:18;2.63;;;2.13;;
7817;SDS011;3954;52.624;9.212;2023-02-18T12:33:51;3.33;;;2.70;;
7817;SDS011;3954;52.624;9.212;2023-02-18T12:36:23;6.07;;;4.85;;
7817;SDS011;3954;52.624;9.212;2023-02-18T12:38:54;4.60;;;3.30;;
7817;SDS011;3954;52.624;9.212;2023-02-18T12:41:32;4.45;;;2.70;;
7817;SDS011;3954;52.624;9.212;2023-02-18T12:44:02;3.80;;;2.92;;
7817;SDS011;3954;52.624;9.212;2023-02-18T12:46:34;3.03;;;2.50;;
7817;SDS011;3954;52.624;9.212;2023-02-18T12:49:31;3.67;;;2.60;;
7817;SDS011;3954;52.624;9.212;2023-02-18T12:52:04;4.40;;;2.70;;
7817;SDS011;3954;52.624;9.212;2023-02-18T12:54:40;4.38;;;3.33;;
7817;SDS011;3954;52.624;9.212;2023-02-18T13:05:27;4.90;;;3.20;;
7817;SDS011;3954;52.624;9.212;2023-02-18T13:08:02;4.22;;;3.42;;
7817;SDS011;3954;52.624;9.212;2023-02-18T13:10:34;3.43;;;3.10;;
7817;SDS011;3954;52.624;9.212;2023-02-18T13:13:07;5.22;;;3.50;;
7817;SDS011;3954;52.624;9.212;2023-02-18T13:15:36;4.25;;;3.50;;
7817;SDS011;3954;52.624;9.212;2023-02-18T13:18:03;4.65;;;3.38;;
7817;SDS011;3954;52.624;9.212;2023-02-18T13:20:34;5.00;;;3.40;;
7817;SDS011;3954;52.624;9.212;2023-02-18T13:23:01;6.43;;;3.65;;
7817;SDS011;3954;52.624;9.212;2023-02-18T13:25:28;6.78;;;3.75;;
7817;SDS011;3954;52.624;9.212;2023-02-18T13:27:58;6.40;;;3.80;;
7817;SDS011;3954;52.624;9.212;2023-02-18T13:30:32;7.13;;;3.55;;
7817;SDS011;3954;52.624;9.212;2023-02-18T13:33:01;6.32;;;3.60;;
7817;SDS011;3954;52.624;9.212;2023-02-18T13:35:31;6.43;;;3.65;;
7817;SDS011;3954;52.624;9.212;2023-02-18T13:38:04;5.93;;;3.67;;
7817;SDS011;3954;52.624;9.212;2023-02-18T13:40:35;4.65;;;3.40;;
7817;SDS011;3954;52.624;9.212;2023-02-18T13:43:17;5.78;;;3.53;;
7817;SDS011;3954;52.624;9.212;2023-02-18T13:45:48;6.30;;;3.60;;
7817;SDS011;3954;52.624;9.212;2023-02-18T13:48:27;6.68;;;3.47;;
7817;SDS011;3954;52.624;9.212;2023-02-18T13:50:54;5.25;;;3.50;;
7817;SDS011;3954;52.624;9.212;2023-02-18T13:53:27;5.35;;;3.45;;
7817;SDS011;3954;52.624;9.212;2023-02-18T13:55:55;7.65;;;3.83;;
7817;SDS011;3954;52.624;9.212;2023-02-18T13:58:23;7.00;;;3.90;;
7817;SDS011;3954;52.624;9.212;2023-02-18T14:00:52;6.55;;;3.67;;
7817;SDS011;3954;52.624;9.212;2023-02-18T14:03:27;5.53;;;3.28;;
7817;SDS011;3954;52.624;9.212;2023-02-18T14:05:57;6.47;;;4.13;;
7817;SDS011;3954;52.624;9.212;2023-02-18T14:08:30;6.05;;;3.80;;
7817;SDS011;3954;52.624;9.212;2023-02-18T14:11:23;6.65;;;4.28;;
7817;SDS011;3954;52.624;9.212;2023-02-18T14:13:51;6.20;;;4.20;;
7817;SDS011;3954;52.624;9.212;2023-02-18T14:16:19;6.97;;;4.57;;
7817;SDS011;3954;52.624;9.212;2023-02-18T14:18:53;7.97;;;4.07;;
7817;SDS011;3954;52.624;9.212;2023-02-18T14:21:21;6.60;;;3.92;;
7817;SDS011;3954;52.624;9.212;2023-02-18T14:23:56;7.82;;;4.43;;
7817;SDS011;3954;52.624;9.212;2023-02-18T14:26:23;8.82;;;4.60;;
7817;SDS011;3954;52.624;9.212;2023-02-18T14:28:51;7.07;;;3.90;;
7817;SDS011;3954;52.624;9.212;2023-02-18T14:31:22;7.97;;;3.70;;
7817;SDS011;3954;52.624;9.212;2023-02-18T14:33:49;8.75;;;4.00;;
7817;SDS011;3954;52.624;9.212;2023-02-18T14:36:18;8.07;;;4.07;;
7817;SDS011;3954;52.624;9.212;2023-02-18T14:38:51;7.05;;;3.83;;
7817;SDS011;3954;52.624;9.212;2023-02-18T14:41:28;12.20;;;4.43;;
7817;SDS011;3954;52.624;9.212;2023-02-18T14:46:46;7.75;;;3.60;;
7817;SDS011;3954;52.624;9.212;2023-02-18T14:49:23;9.03;;;3.53;;
7817;SDS011;3954;52.624;9.212;2023-02-18T14:51:51;6.55;;;3.17;;
7817;SDS011;3954;52.624;9.212;2023-02-18T14:54:18;8.40;;;3.60;;
7817;SDS011;3954;52.624;9.212;2023-02-18T14:56:50;9.50;;;3.67;;
7817;SDS011;3954;52.624;9.212;2023-02-18T14:59:17;7.30;;;3.20;;
7817;SDS011;3954;52.624;9.212;2023-02-18T15:01:45;6.85;;;3.25;;
7817;SDS011;3954;52.624;9.212;2023-02-18T15:04:12;7.82;;;3.47;;
7817;SDS011;3954;52.624;9.212;2023-02-18T15:06:39;7.73;;;3.50;;
7817;SDS011;3954;52.624;9.212;2023-02-18T15:09:11;9.48;;;3.80;;
7817;SDS011;3954;52.624;9.212;2023-02-18T15:11:38;7.68;;;3.65;;
7817;SDS011;3954;52.624;9.212;2023-02-18T15:14:09;9.05;;;3.53;;
7817;SDS011;3954;52.624;9.212;2023-02-18T15:16:36;8.60;;;3.67;;
7817;SDS011;3954;52.624;9.212;2023-02-18T15:19:03;8.35;;;3.45;;
7817;SDS011;3954;52.624;9.212;2023-02-18T15:21:30;8.55;;;3.65;;
7817;SDS011;3954;52.624;9.212;2023-02-18T15:23:57;8.27;;;3.58;;
7817;SDS011;3954;52.624;9.212;2023-02-18T15:26:24;8.93;;;3.60;;
7817;SDS011;3954;52.624;9.212;2023-02-18T15:28:53;8.65;;;3.85;;
7817;SDS011;3954;52.624;9.212;2023-02-18T15:31:23;7.57;;;3.60;;
7817;SDS011;3954;52.624;9.212;2023-02-18T15:33:49;8.05;;;3.78;;
7817;SDS011;3954;52.624;9.212;2023-02-18T15:36:15;8.88;;;3.83;;